sensor_id;sensor_type;location;lat;lon;timestamp;pressure;altitude;pressure_sealevel;temperature;humidity
56630;BME280;42502;40.732;-74.254;2022-09-23T00:00:08;99566.13;;;27.50;33.92
56630;BME280;42502;40.732;-74.254;2022-09-23T00:02:09;99580.72;;;27.52;34.01
56630;BME280;42502;40.732;-74.254;2022-09-23T00:04:10;99587.97;;;27.53;34.30
56630;BME280;42502;40.732;-74.254;2022-09-23T00:06:13;99596.09;;;27.51;34.14
56630;BME280;42502;40.732;-74.254;2022-09-23T00:08:14;99595.31;;;27.50;34.50
56630;BME280;42502;40.732;-74.254;2022-09-23T00:10:15;99598.94;;;27.51;34.32
56630;BME280;42502;40.732;-74.254;2022-09-23T00:12:16;99611.94;;;27.48;34.28
56630;BME280;42502;40.732;-74.254;2022-09-23T00:14:17;99618.91;;;27.43;34.47
56630;BME280;42502;40.732;-74.254;2022-09-23T00:16:25;99626.56;;;27.46;34.19
56630;BME280;42502;40.732;-74.254;2022-09-23T00:18:27;99615.75;;;27.38;34.03
56630;BME280;42502;40.732;-74.254;2022-09-23T00:20:28;99627.84;;;27.42;33.83
56630;BME280;42502;40.732;-74.254;2022-09-23T00:22:29;99652.19;;;27.39;33.64
56630;BME280;42502;40.732;-74.254;2022-09-23T00:24:30;99651.38;;;27.39;33.85
56630;BME280;42502;40.732;-74.254;2022-09-23T00:26:31;99661.94;;;27.38;33.93
56630;BME280;42502;40.732;-74.254;2022-09-23T00:28:33;99670.06;;;27.36;33.55
56630;BME280;42502;40.732;-74.254;2022-09-23T00:30:37;99662.00;;;27.35;33.62
56630;BME280;42502;40.732;-74.254;2022-09-23T00:32:39;99664.44;;;27.33;33.35
56630;BME280;42502;40.732;-74.254;2022-09-23T00:34:43;99674.97;;;27.32;33.76
56630;BME280;42502;40.732;-74.254;2022-09-23T00:36:44;99677.00;;;27.32;33.65
56630;BME280;42502;40.732;-74.254;2022-09-23T00:38:45;99674.59;;;27.26;33.57
56630;BME280;42502;40.732;-74.254;2022-09-23T00:40:46;99683.91;;;27.27;33.57
56630;BME280;42502;40.732;-74.254;2022-09-23T00:42:48;99686.75;;;27.27;33.64
56630;BME280;42502;40.732;-74.254;2022-09-23T00:44:54;99683.53;;;27.25;33.36
56630;BME280;42502;40.732;-74.254;2022-09-23T00:46:56;99692.03;;;27.25;33.30
56630;BME280;42502;40.732;-74.254;2022-09-23T00:49:28;99704.22;;;27.22;33.88
56630;BME280;42502;40.732;-74.254;2022-09-23T00:51:37;99695.34;;;27.20;33.87
56630;BME280;42502;40.732;-74.254;2022-09-23T00:53:40;99694.50;;;27.23;33.75
56630;BME280;42502;40.732;-74.254;2022-09-23T00:55:51;99697.38;;;27.19;33.89
56630;BME280;42502;40.732;-74.254;2022-09-23T00:57:55;99706.72;;;27.16;33.93
56630;BME280;42502;40.732;-74.254;2022-09-23T00:59:58;99714.00;;;27.17;33.87
56630;BME280;42502;40.732;-74.254;2022-09-23T01:02:01;99718.88;;;27.17;33.73
56630;BME280;42502;40.732;-74.254;2022-09-23T01:04:02;99725.34;;;27.17;34.20
56630;BME280;42502;40.732;-74.254;2022-09-23T01:06:04;99735.50;;;27.15;34.02
56630;BME280;42502;40.732;-74.254;2022-09-23T01:08:05;99732.25;;;27.16;34.05
56630;BME280;42502;40.732;-74.254;2022-09-23T01:10:09;99744.81;;;27.15;34.14
56630;BME280;42502;40.732;-74.254;2022-09-23T01:21:01;99767.53;;;27.11;34.67
56630;BME280;42502;40.732;-74.254;2022-09-23T01:25:38;99778.13;;;27.07;34.63
56630;BME280;42502;40.732;-74.254;2022-09-23T01:32:18;99772.44;;;27.07;34.63
56630;BME280;42502;40.732;-74.254;2022-09-23T01:36:38;99784.63;;;27.04;34.52
56630;BME280;42502;40.732;-74.254;2022-09-23T01:39:02;99791.16;;;27.01;34.20
56630;BME280;42502;40.732;-74.254;2022-09-23T01:41:26;99786.28;;;27.02;34.05
56630;BME280;42502;40.732;-74.254;2022-09-23T01:43:39;99778.97;;;27.01;34.13
56630;BME280;42502;40.732;-74.254;2022-09-23T01:45:45;99776.56;;;26.99;34.35
56630;BME280;42502;40.732;-74.254;2022-09-23T01:47:55;99778.25;;;26.93;34.13
56630;BME280;42502;40.732;-74.254;2022-09-23T01:50:03;99785.50;;;26.98;34.40
56630;BME280;42502;40.732;-74.254;2022-09-23T01:52:37;99782.31;;;26.92;33.93
56630;BME280;42502;40.732;-74.254;2022-09-23T01:55:06;99783.50;;;26.94;34.23
56630;BME280;42502;40.732;-74.254;2022-09-23T01:57:43;99788.38;;;26.94;34.21
56630;BME280;42502;40.732;-74.254;2022-09-23T01:59:49;99804.97;;;26.92;34.00
56630;BME280;42502;40.732;-74.254;2022-09-23T02:02:04;99812.69;;;26.91;33.82
56630;BME280;42502;40.732;-74.254;2022-09-23T02:04:34;99815.09;;;26.93;33.58
56630;BME280;42502;40.732;-74.254;2022-09-23T02:06:47;99821.59;;;26.90;33.94
56630;BME280;42502;40.732;-74.254;2022-09-23T02:08:56;99819.19;;;26.88;33.65
56630;BME280;42502;40.732;-74.254;2022-09-23T02:11:04;99832.50;;;26.91;33.49
56630;BME280;42502;40.732;-74.254;2022-09-23T02:15:34;99831.72;;;26.91;33.72
56630;BME280;42502;40.732;-74.254;2022-09-23T02:19:53;99830.53;;;26.88;33.59
56630;BME280;42502;40.732;-74.254;2022-09-23T02:22:04;99834.56;;;26.87;33.54
56630;BME280;42502;40.732;-74.254;2022-09-23T02:24:17;99829.38;;;26.82;33.27
56630;BME280;42502;40.732;-74.254;2022-09-23T02:26:26;99839.88;;;26.85;33.35
56630;BME280;42502;40.732;-74.254;2022-09-23T02:28:46;99842.31;;;26.83;33.56
56630;BME280;42502;40.732;-74.254;2022-09-23T02:31:04;99831.41;;;26.82;33.50
56630;BME280;42502;40.732;-74.254;2022-09-23T02:33:11;99819.38;;;26.67;33.07
56630;BME280;42502;40.732;-74.254;2022-09-23T02:40:06;99848.84;;;26.76;33.36
56630;BME280;42502;40.732;-74.254;2022-09-23T02:42:14;99840.38;;;26.73;33.17
56630;BME280;42502;40.732;-74.254;2022-09-23T02:44:17;99837.91;;;26.75;32.91
56630;BME280;42502;40.732;-74.254;2022-09-23T02:46:19;99849.66;;;26.77;33.49
56630;BME280;42502;40.732;-74.254;2022-09-23T02:48:25;99844.00;;;26.73;33.31
56630;BME280;42502;40.732;-74.254;2022-09-23T02:50:28;99842.00;;;26.70;33.08
56630;BME280;42502;40.732;-74.254;2022-09-23T02:52:31;99838.78;;;26.68;33.45
56630;BME280;42502;40.732;-74.254;2022-09-23T02:54:33;99832.75;;;26.66;33.29
56630;BME280;42502;40.732;-74.254;2022-09-23T02:56:34;99838.41;;;26.66;33.07
56630;BME280;42502;40.732;-74.254;2022-09-23T02:58:38;99849.72;;;26.70;32.99
56630;BME280;42502;40.732;-74.254;2022-09-23T03:00:53;99846.50;;;26.68;33.15
56630;BME280;42502;40.732;-74.254;2022-09-23T03:05:30;99863.47;;;26.64;33.10
56630;BME280;42502;40.732;-74.254;2022-09-23T03:10:37;99882.91;;;26.62;33.32
56630;BME280;42502;40.732;-74.254;2022-09-23T03:17:35;99882.97;;;26.55;33.24
56630;BME280;42502;40.732;-74.254;2022-09-23T03:24:41;99900.75;;;26.59;33.45
56630;BME280;42502;40.732;-74.254;2022-09-23T03:26:45;99889.00;;;26.57;33.46
56630;BME280;42502;40.732;-74.254;2022-09-23T03:28:52;99893.50;;;26.54;33.81
56630;BME280;42502;40.732;-74.254;2022-09-23T03:30:55;99900.75;;;26.55;33.34
56630;BME280;42502;40.732;-74.254;2022-09-23T03:33:00;99908.88;;;26.53;33.54
56630;BME280;42502;40.732;-74.254;2022-09-23T03:35:04;99908.06;;;26.53;33.45
56630;BME280;42502;40.732;-74.254;2022-09-23T03:37:23;99920.63;;;26.52;33.73
56630;BME280;42502;40.732;-74.254;2022-09-23T03:41:43;99931.56;;;26.50;33.46
56630;BME280;42502;40.732;-74.254;2022-09-23T03:43:50;99918.59;;;26.49;33.64
56630;BME280;42502;40.732;-74.254;2022-09-23T03:45:52;99919.06;;;26.44;33.71
56630;BME280;42502;40.732;-74.254;2022-09-23T03:47:56;99927.53;;;26.47;33.95
56630;BME280;42502;40.732;-74.254;2022-09-23T03:49:57;99920.25;;;26.42;33.87
56630;BME280;42502;40.732;-74.254;2022-09-23T03:51:58;99929.19;;;26.41;33.59
56630;BME280;42502;40.732;-74.254;2022-09-23T03:54:01;99931.97;;;26.45;33.85
56630;BME280;42502;40.732;-74.254;2022-09-23T03:56:02;99938.06;;;26.43;33.88
56630;BME280;42502;40.732;-74.254;2022-09-23T03:58:03;99942.13;;;26.42;33.55
56630;BME280;42502;40.732;-74.254;2022-09-23T04:00:05;99930.41;;;26.33;33.48
56630;BME280;42502;40.732;-74.254;2022-09-23T04:02:07;99936.03;;;26.40;33.64
56630;BME280;42502;40.732;-74.254;2022-09-23T04:04:09;99940.53;;;26.37;33.73
56630;BME280;42502;40.732;-74.254;2022-09-23T04:06:10;99945.78;;;26.35;33.89
56630;BME280;42502;40.732;-74.254;2022-09-23T04:08:10;99945.38;;;26.37;33.55
56630;BME280;42502;40.732;-74.254;2022-09-23T04:10:11;99943.38;;;26.30;33.55
56630;BME280;42502;40.732;-74.254;2022-09-23T04:12:13;99944.19;;;26.34;33.63
56630;BME280;42502;40.732;-74.254;2022-09-23T04:14:15;99960.34;;;26.34;33.92
56630;BME280;42502;40.732;-74.254;2022-09-23T04:16:16;99960.75;;;26.32;33.98
56630;BME280;42502;40.732;-74.254;2022-09-23T04:18:17;99962.78;;;26.28;33.90
56630;BME280;42502;40.732;-74.254;2022-09-23T04:20:18;99964.03;;;26.27;33.56
56630;BME280;42502;40.732;-74.254;2022-09-23T04:22:19;99973.34;;;26.24;33.61
56630;BME280;42502;40.732;-74.254;2022-09-23T04:24:20;99972.53;;;26.27;33.64
56630;BME280;42502;40.732;-74.254;2022-09-23T04:26:21;99975.34;;;26.27;33.70
56630;BME280;42502;40.732;-74.254;2022-09-23T04:28:22;99972.53;;;26.23;33.86
56630;BME280;42502;40.732;-74.254;2022-09-23T04:30:23;99977.00;;;26.21;33.89
56630;BME280;42502;40.732;-74.254;2022-09-23T04:32:23;99975.38;;;26.20;33.82
56630;BME280;42502;40.732;-74.254;2022-09-23T04:34:27;99981.84;;;26.24;33.59
56630;BME280;42502;40.732;-74.254;2022-09-23T04:36:28;99988.72;;;26.23;33.26
56630;BME280;42502;40.732;-74.254;2022-09-23T04:38:29;99995.59;;;26.22;33.60
56630;BME280;42502;40.732;-74.254;2022-09-23T04:40:34;99990.75;;;26.15;33.81
56630;BME280;42502;40.732;-74.254;2022-09-23T04:42:38;100001.28;;;26.18;33.78
56630;BME280;42502;40.732;-74.254;2022-09-23T04:44:39;99995.59;;;26.18;33.76
56630;BME280;42502;40.732;-74.254;2022-09-23T04:46:43;99998.88;;;26.13;33.87
56630;BME280;42502;40.732;-74.254;2022-09-23T04:48:47;99997.25;;;26.12;33.76
56630;BME280;42502;40.732;-74.254;2022-09-23T04:50:48;100002.09;;;26.15;33.86
56630;BME280;42502;40.732;-74.254;2022-09-23T04:52:49;99989.97;;;26.08;33.95
56630;BME280;42502;40.732;-74.254;2022-09-23T04:54:49;99987.56;;;26.06;33.84
56630;BME280;42502;40.732;-74.254;2022-09-23T04:56:50;99992.81;;;26.08;33.64
56630;BME280;42502;40.732;-74.254;2022-09-23T04:58:51;99992.44;;;26.05;33.96
56630;BME280;42502;40.732;-74.254;2022-09-23T05:00:52;99992.81;;;26.08;33.66
56630;BME280;42502;40.732;-74.254;2022-09-23T05:02:53;99998.09;;;26.05;34.06
56630;BME280;42502;40.732;-74.254;2022-09-23T05:04:54;99995.66;;;26.08;33.82
56630;BME280;42502;40.732;-74.254;2022-09-23T05:06:54;100003.75;;;26.05;33.70
56630;BME280;42502;40.732;-74.254;2022-09-23T05:08:57;100017.06;;;26.05;33.87
56630;BME280;42502;40.732;-74.254;2022-09-23T05:10:59;100015.06;;;26.05;33.92
56630;BME280;42502;40.732;-74.254;2022-09-23T05:13:01;100020.31;;;26.03;33.76
56630;BME280;42502;40.732;-74.254;2022-09-23T05:15:01;100013.44;;;26.01;33.88
56630;BME280;42502;40.732;-74.254;2022-09-23T05:17:02;100014.25;;;26.01;33.75
56630;BME280;42502;40.732;-74.254;2022-09-23T05:19:03;100009.41;;;25.98;33.93
56630;BME280;42502;40.732;-74.254;2022-09-23T05:21:04;100020.75;;;25.98;33.86
56630;BME280;42502;40.732;-74.254;2022-09-23T05:23:05;100010.59;;;25.97;34.11
56630;BME280;42502;40.732;-74.254;2022-09-23T05:25:09;100000.47;;;25.96;33.74
56630;BME280;42502;40.732;-74.254;2022-09-23T05:27:10;100016.66;;;25.96;33.70
56630;BME280;42502;40.732;-74.254;2022-09-23T05:29:13;100015.47;;;25.89;33.65
56630;BME280;42502;40.732;-74.254;2022-09-23T05:31:19;100015.03;;;25.95;33.70
56630;BME280;42502;40.732;-74.254;2022-09-23T05:33:20;100015.84;;;25.92;33.95
56630;BME280;42502;40.732;-74.254;2022-09-23T05:35:21;100019.50;;;25.92;33.59
56630;BME280;42502;40.732;-74.254;2022-09-23T05:37:28;100026.38;;;25.91;34.09
56630;BME280;42502;40.732;-74.254;2022-09-23T05:39:29;100027.56;;;25.90;33.75
56630;BME280;42502;40.732;-74.254;2022-09-23T05:41:30;100028.41;;;25.91;33.80
56630;BME280;42502;40.732;-74.254;2022-09-23T05:43:32;100021.13;;;25.89;33.88
56630;BME280;42502;40.732;-74.254;2022-09-23T05:45:34;100028.00;;;25.85;34.03
56630;BME280;42502;40.732;-74.254;2022-09-23T05:47:35;100032.47;;;25.86;33.98
56630;BME280;42502;40.732;-74.254;2022-09-23T05:49:36;100030.03;;;25.81;33.74
56630;BME280;42502;40.732;-74.254;2022-09-23T05:51:37;100028.03;;;25.81;33.58
56630;BME280;42502;40.732;-74.254;2022-09-23T05:53:39;100042.97;;;25.82;33.82
56630;BME280;42502;40.732;-74.254;2022-09-23T05:55:41;100045.38;;;25.83;33.88
56630;BME280;42502;40.732;-74.254;2022-09-23T05:57:41;100053.47;;;25.81;33.90
56630;BME280;42502;40.732;-74.254;2022-09-23T05:59:42;100048.22;;;25.73;34.04
56630;BME280;42502;40.732;-74.254;2022-09-23T06:01:47;100041.34;;;25.77;33.76
56630;BME280;42502;40.732;-74.254;2022-09-23T06:03:48;100055.09;;;25.79;33.61
56630;BME280;42502;40.732;-74.254;2022-09-23T06:05:53;100041.38;;;25.74;33.90
56630;BME280;42502;40.732;-74.254;2022-09-23T06:07:54;100043.38;;;25.73;33.88
56630;BME280;42502;40.732;-74.254;2022-09-23T06:09:54;100044.59;;;25.76;33.90
56630;BME280;42502;40.732;-74.254;2022-09-23T06:11:55;100038.94;;;25.76;33.89
56630;BME280;42502;40.732;-74.254;2022-09-23T06:13:57;100048.22;;;25.73;34.11
56630;BME280;42502;40.732;-74.254;2022-09-23T06:16:01;100042.56;;;25.69;34.23
56630;BME280;42502;40.732;-74.254;2022-09-23T06:18:03;100036.09;;;25.68;34.18
56630;BME280;42502;40.732;-74.254;2022-09-23T06:20:04;100042.56;;;25.69;33.90
56630;BME280;42502;40.732;-74.254;2022-09-23T06:22:05;100028.84;;;25.60;34.06
56630;BME280;42502;40.732;-74.254;2022-09-23T06:24:06;100040.56;;;25.69;33.85
56630;BME280;42502;40.732;-74.254;2022-09-23T06:26:10;100041.38;;;25.66;34.06
56630;BME280;42502;40.732;-74.254;2022-09-23T06:28:11;100039.34;;;25.67;34.07
56630;BME280;42502;40.732;-74.254;2022-09-23T06:30:12;100047.03;;;25.66;33.96
56630;BME280;42502;40.732;-74.254;2022-09-23T06:32:13;100049.03;;;25.66;33.97
56630;BME280;42502;40.732;-74.254;2022-09-23T06:34:14;100053.06;;;25.61;34.17
56630;BME280;42502;40.732;-74.254;2022-09-23T06:36:15;100052.66;;;25.63;33.97
56630;BME280;42502;40.732;-74.254;2022-09-23T06:38:16;100064.38;;;25.61;33.71
56630;BME280;42502;40.732;-74.254;2022-09-23T06:40:17;100060.34;;;25.62;33.96
56630;BME280;42502;40.732;-74.254;2022-09-23T06:42:18;100051.88;;;25.59;34.08
56630;BME280;42502;40.732;-74.254;2022-09-23T06:44:18;100055.50;;;25.59;33.81
56630;BME280;42502;40.732;-74.254;2022-09-23T06:46:19;100060.38;;;25.59;33.95
56630;BME280;42502;40.732;-74.254;2022-09-23T06:48:20;100059.53;;;25.58;34.15
56630;BME280;42502;40.732;-74.254;2022-09-23T06:50:23;100055.91;;;25.58;33.83
56630;BME280;42502;40.732;-74.254;2022-09-23T06:52:24;100056.31;;;25.56;34.21
56630;BME280;42502;40.732;-74.254;2022-09-23T06:54:26;100061.97;;;25.56;34.01
56630;BME280;42502;40.732;-74.254;2022-09-23T06:56:28;100064.41;;;25.54;34.23
56630;BME280;42502;40.732;-74.254;2022-09-23T06:58:29;100065.59;;;25.53;34.00
56630;BME280;42502;40.732;-74.254;2022-09-23T07:00:31;100065.22;;;25.51;33.92
56630;BME280;42502;40.732;-74.254;2022-09-23T07:02:31;100065.22;;;25.51;34.23
56630;BME280;42502;40.732;-74.254;2022-09-23T07:04:32;100066.81;;;25.52;34.07
56630;BME280;42502;40.732;-74.254;2022-09-23T07:06:33;100061.16;;;25.48;33.86
56630;BME280;42502;40.732;-74.254;2022-09-23T07:08:34;100062.78;;;25.49;34.17
56630;BME280;42502;40.732;-74.254;2022-09-23T07:10:49;100068.41;;;25.46;34.12
56630;BME280;42502;40.732;-74.254;2022-09-23T07:12:50;100066.81;;;25.45;34.06
56630;BME280;42502;40.732;-74.254;2022-09-23T07:14:51;100074.91;;;25.46;33.99
56630;BME280;42502;40.732;-74.254;2022-09-23T07:16:52;100074.06;;;25.46;34.23
56630;BME280;42502;40.732;-74.254;2022-09-23T07:18:53;100057.53;;;25.41;33.78
56630;BME280;42502;40.732;-74.254;2022-09-23T07:20:54;100063.97;;;25.41;33.76
56630;BME280;42502;40.732;-74.254;2022-09-23T07:22:58;100064.81;;;25.42;34.15
56630;BME280;42502;40.732;-74.254;2022-09-23T07:24:59;100067.22;;;25.40;33.90
56630;BME280;42502;40.732;-74.254;2022-09-23T07:26:59;100073.25;;;25.38;33.94
56630;BME280;42502;40.732;-74.254;2022-09-23T07:29:02;100080.53;;;25.35;33.96
56630;BME280;42502;40.732;-74.254;2022-09-23T07:31:06;100082.16;;;25.36;33.91
56630;BME280;42502;40.732;-74.254;2022-09-23T07:33:08;100076.47;;;25.29;33.69
56630;BME280;42502;40.732;-74.254;2022-09-23T07:35:09;100089.41;;;25.30;33.78
56630;BME280;42502;40.732;-74.254;2022-09-23T07:37:14;100095.88;;;25.34;34.01
56630;BME280;42502;40.732;-74.254;2022-09-23T07:39:18;100091.44;;;25.30;33.95
56630;BME280;42502;40.732;-74.254;2022-09-23T07:41:19;100086.97;;;25.32;33.91
56630;BME280;42502;40.732;-74.254;2022-09-23T07:43:28;100096.69;;;25.31;33.96
56630;BME280;42502;40.732;-74.254;2022-09-23T07:45:31;100094.25;;;25.33;33.69
56630;BME280;42502;40.732;-74.254;2022-09-23T07:47:33;100093.44;;;25.29;34.06
56630;BME280;42502;40.732;-74.254;2022-09-23T07:49:37;100089.78;;;25.25;33.39
56630;BME280;42502;40.732;-74.254;2022-09-23T07:51:40;100092.59;;;25.22;33.76
56630;BME280;42502;40.732;-74.254;2022-09-23T07:53:40;100098.66;;;25.27;33.83
56630;BME280;42502;40.732;-74.254;2022-09-23T07:55:55;100100.25;;;25.25;34.07
56630;BME280;42502;40.732;-74.254;2022-09-23T07:57:56;100094.63;;;25.21;33.72
56630;BME280;42502;40.732;-74.254;2022-09-23T07:59:57;100089.75;;;25.18;33.86
56630;BME280;42502;40.732;-74.254;2022-09-23T08:02:00;100093.41;;;25.22;33.69
56630;BME280;42502;40.732;-74.254;2022-09-23T08:04:39;100091.00;;;25.21;34.12
56630;BME280;42502;40.732;-74.254;2022-09-23T08:06:34;100095.00;;;25.19;34.01
56630;BME280;42502;40.732;-74.254;2022-09-23T08:08:36;100097.03;;;25.19;34.10
56630;BME280;42502;40.732;-74.254;2022-09-23T08:10:42;100094.19;;;25.15;33.96
56630;BME280;42502;40.732;-74.254;2022-09-23T08:12:46;100097.84;;;25.16;33.92
56630;BME280;42502;40.732;-74.254;2022-09-23T08:14:48;100096.63;;;25.13;33.65
56630;BME280;42502;40.732;-74.254;2022-09-23T08:16:49;100097.41;;;25.14;33.72
56630;BME280;42502;40.732;-74.254;2022-09-23T08:18:53;100095.81;;;25.13;33.88
56630;BME280;42502;40.732;-74.254;2022-09-23T08:20:56;100091.75;;;25.07;33.71
56630;BME280;42502;40.732;-74.254;2022-09-23T08:22:57;100091.75;;;25.07;33.69
56630;BME280;42502;40.732;-74.254;2022-09-23T08:24:58;100093.75;;;25.06;33.56
56630;BME280;42502;40.732;-74.254;2022-09-23T08:27:02;100104.66;;;25.04;33.57
56630;BME280;42502;40.732;-74.254;2022-09-23T08:29:03;100106.69;;;25.07;33.64
56630;BME280;42502;40.732;-74.254;2022-09-23T08:31:04;100111.91;;;25.05;33.35
56630;BME280;42502;40.732;-74.254;2022-09-23T08:33:05;100099.38;;;24.99;33.46
56630;BME280;42502;40.732;-74.254;2022-09-23T08:35:06;100110.72;;;25.03;33.32
56630;BME280;42502;40.732;-74.254;2022-09-23T08:37:10;100109.09;;;25.01;33.58
56630;BME280;42502;40.732;-74.254;2022-09-23T08:39:15;100113.53;;;24.99;33.35
56630;BME280;42502;40.732;-74.254;2022-09-23T08:41:57;100126.84;;;24.98;33.34
56630;BME280;42502;40.732;-74.254;2022-09-23T08:43:50;100128.06;;;25.01;33.34
56630;BME280;42502;40.732;-74.254;2022-09-23T08:45:56;100135.31;;;24.98;33.47
56630;BME280;42502;40.732;-74.254;2022-09-23T08:48:16;100140.56;;;24.96;33.21
56630;BME280;42502;40.732;-74.254;2022-09-23T08:50:25;100144.19;;;24.97;33.19
56630;BME280;42502;40.732;-74.254;2022-09-23T08:52:40;100144.19;;;24.93;33.28
56630;BME280;42502;40.732;-74.254;2022-09-23T08:54:46;100138.94;;;24.92;33.46
56630;BME280;42502;40.732;-74.254;2022-09-23T08:56:49;100155.47;;;24.86;33.08
56630;BME280;42502;40.732;-74.254;2022-09-23T09:01:19;100167.97;;;24.85;33.59
56630;BME280;42502;40.732;-74.254;2022-09-23T09:03:22;100165.97;;;24.86;33.52
56630;BME280;42502;40.732;-74.254;2022-09-23T09:05:27;100167.16;;;24.88;33.42
56630;BME280;42502;40.732;-74.254;2022-09-23T09:07:34;100165.56;;;24.87;33.56
56630;BME280;42502;40.732;-74.254;2022-09-23T09:11:47;100172.41;;;24.82;33.48
56630;BME280;42502;40.732;-74.254;2022-09-23T09:14:01;100176.81;;;24.80;33.18
56630;BME280;42502;40.732;-74.254;2022-09-23T09:16:27;100190.50;;;24.78;33.40
56630;BME280;42502;40.732;-74.254;2022-09-23T09:18:54;100171.13;;;24.73;33.34
56630;BME280;42502;40.732;-74.254;2022-09-23T09:21:13;100173.16;;;24.76;33.22
56630;BME280;42502;40.732;-74.254;2022-09-23T09:24:02;100171.94;;;24.73;33.36
56630;BME280;42502;40.732;-74.254;2022-09-23T09:26:02;100172.75;;;24.74;33.08
56630;BME280;42502;40.732;-74.254;2022-09-23T09:28:20;100176.38;;;24.71;33.12
56630;BME280;42502;40.732;-74.254;2022-09-23T09:30:24;100170.69;;;24.67;33.11
56630;BME280;42502;40.732;-74.254;2022-09-23T09:32:47;100179.56;;;24.65;33.31
56630;BME280;42502;40.732;-74.254;2022-09-23T09:34:58;100193.28;;;24.67;33.25
56630;BME280;42502;40.732;-74.254;2022-09-23T09:39:11;100194.06;;;24.60;33.00
56630;BME280;42502;40.732;-74.254;2022-09-23T09:41:13;100192.47;;;24.63;33.07
56630;BME280;42502;40.732;-74.254;2022-09-23T09:43:18;100190.44;;;24.63;33.27
56630;BME280;42502;40.732;-74.254;2022-09-23T09:45:32;100199.72;;;24.64;33.09
56630;BME280;42502;40.732;-74.254;2022-09-23T09:48:10;100204.56;;;24.60;33.01
56630;BME280;42502;40.732;-74.254;2022-09-23T09:50:18;100200.50;;;24.61;33.39
56630;BME280;42502;40.732;-74.254;2022-09-23T09:52:38;100203.72;;;24.59;33.11
56630;BME280;42502;40.732;-74.254;2022-09-23T09:54:39;100209.75;;;24.58;32.65
56630;BME280;42502;40.732;-74.254;2022-09-23T09:56:40;100210.13;;;24.56;32.96
56630;BME280;42502;40.732;-74.254;2022-09-23T09:58:47;100220.22;;;24.54;32.76
56630;BME280;42502;40.732;-74.254;2022-09-23T10:00:54;100220.97;;;24.47;32.74
56630;BME280;42502;40.732;-74.254;2022-09-23T10:05:47;100243.94;;;24.45;33.02
56630;BME280;42502;40.732;-74.254;2022-09-23T10:07:48;100237.91;;;24.47;32.57
56630;BME280;42502;40.732;-74.254;2022-09-23T10:09:49;100241.09;;;24.42;32.90
56630;BME280;42502;40.732;-74.254;2022-09-23T10:12:10;100247.13;;;24.40;32.82
56630;BME280;42502;40.732;-74.254;2022-09-23T10:14:16;100246.75;;;24.42;32.77
56630;BME280;42502;40.732;-74.254;2022-09-23T10:16:17;100237.41;;;24.34;32.59
56630;BME280;42502;40.732;-74.254;2022-09-23T10:18:33;100249.13;;;24.36;32.63
56630;BME280;42502;40.732;-74.254;2022-09-23T10:20:35;100253.56;;;24.37;32.52
56630;BME280;42502;40.732;-74.254;2022-09-23T10:22:39;100255.94;;;24.35;32.58
56630;BME280;42502;40.732;-74.254;2022-09-23T10:24:47;100259.94;;;24.30;32.54
56630;BME280;42502;40.732;-74.254;2022-09-23T10:27:01;100268.41;;;24.30;32.81
56630;BME280;42502;40.732;-74.254;2022-09-23T10:29:21;100276.06;;;24.26;32.74
56630;BME280;42502;40.732;-74.254;2022-09-23T10:33:27;100297.88;;;24.29;32.39
56630;BME280;42502;40.732;-74.254;2022-09-23T10:35:27;100305.88;;;24.27;32.37
56630;BME280;42502;40.732;-74.254;2022-09-23T10:37:37;100298.63;;;24.26;32.41
56630;BME280;42502;40.732;-74.254;2022-09-23T10:39:38;100297.81;;;24.26;32.54
56630;BME280;42502;40.732;-74.254;2022-09-23T10:42:12;100290.91;;;24.20;32.38
56630;BME280;42502;40.732;-74.254;2022-09-23T10:44:51;100299.75;;;24.18;32.51
56630;BME280;42502;40.732;-74.254;2022-09-23T10:47:30;100305.06;;;24.23;32.56
56630;BME280;42502;40.732;-74.254;2022-09-23T10:56:39;100311.41;;;24.13;32.19
56630;BME280;42502;40.732;-74.254;2022-09-23T11:08:22;100334.69;;;24.03;32.08
56630;BME280;42502;40.732;-74.254;2022-09-23T11:10:52;100322.91;;;23.97;32.13
56630;BME280;42502;40.732;-74.254;2022-09-23T11:13:00;100341.94;;;24.04;31.97
56630;BME280;42502;40.732;-74.254;2022-09-23T11:26:09;100338.16;;;23.89;31.92
56630;BME280;42502;40.732;-74.254;2022-09-23T11:28:27;100355.09;;;23.92;32.42
56630;BME280;42502;40.732;-74.254;2022-09-23T11:37:39;100357.13;;;23.92;32.46
56630;BME280;42502;40.732;-74.254;2022-09-23T11:39:56;100353.06;;;23.89;32.48
56630;BME280;42502;40.732;-74.254;2022-09-23T11:42:05;100350.56;;;23.84;32.24
56630;BME280;42502;40.732;-74.254;2022-09-23T11:44:25;100359.84;;;23.85;32.37
56630;BME280;42502;40.732;-74.254;2022-09-23T11:46:47;100340.81;;;23.78;32.28
56630;BME280;42502;40.732;-74.254;2022-09-23T11:55:38;100351.59;;;23.69;31.84
56630;BME280;42502;40.732;-74.254;2022-09-23T11:58:18;100363.72;;;23.73;32.12
56630;BME280;42502;40.732;-74.254;2022-09-23T12:00:22;100361.34;;;23.75;31.75
56630;BME280;42502;40.732;-74.254;2022-09-23T12:02:29;100360.44;;;23.67;31.82
56630;BME280;42502;40.732;-74.254;2022-09-23T12:04:36;100361.25;;;23.68;31.85
56630;BME280;42502;40.732;-74.254;2022-09-23T12:06:42;100364.91;;;23.72;31.57
56630;BME280;42502;40.732;-74.254;2022-09-23T12:08:45;100358.00;;;23.66;31.62
56630;BME280;42502;40.732;-74.254;2022-09-23T12:13:55;100365.59;;;23.62;31.57
56630;BME280;42502;40.732;-74.254;2022-09-23T12:15:40;100375.34;;;23.68;31.55
56630;BME280;42502;40.732;-74.254;2022-09-23T12:22:38;100378.06;;;23.60;31.87
56630;BME280;42502;40.732;-74.254;2022-09-23T12:26:59;100373.56;;;23.56;31.92
56630;BME280;42502;40.732;-74.254;2022-09-23T12:29:02;100384.16;;;23.63;32.39
56630;BME280;42502;40.732;-74.254;2022-09-23T12:31:10;100372.41;;;23.60;32.00